METAR stanice u blizini

 

LYBE - Beograd / Surčin, Srbija
Ažurirano: 06/06/2023 05:30
Vedro
Vedro
 Pravac vetra JI
Vetar: JI 7 km/h
Temperatura: 17°C
Tačka rose: 16°C
Vlažnost: 94%
Pritisak: 1016 hPa
Pregled: Vedro
Vidljivost: greater than 10 km
2023/06/06 03:30 LYBE 060330Z 14004KT 110V180 CAVOK 17/16 Q1016 NOSIG
LYBT - Beograd / Batajnica, Srbija
Ažurirano: 06/06/2023 05:30
Partly Cloudy
Partly Cloudy
 Pravac vetra calm
Vetar: Tišina
Temperatura: 17°C
Tačka rose: 17°C
Vlažnost: 100%
Pritisak: 1016 hPa
Oblaci: Partly Cloudy
Vidljivost: 8 km
2023/06/06 03:30 LYBT 060330Z 00000KT 8000 NSC 17/17 Q1016 NOSIG
LYVR - Vršac, Srbija
Ažurirano: 06/06/2023 05:30
Vedro
Vedro
 Pravac vetra JI
Vetar: JI 35 km/h, Maks.: 69 km/h
Temperatura: 21°C
Tačka rose: 10°C
Vlažnost: 50%
Pritisak: 1016 hPa
Pregled: Vedro
Vidljivost: greater than 10 km
2023/06/06 03:30 LYVR 060330Z AUTO 14019G37KT CAVOK 21/10 Q1016
 
LYKV - Lađevci, Srbija
Ažurirano: 06/06/2023 05:30
Mist, Pretežno oblačno
Mist, Pretežno oblačno
 Pravac vetra calm
Vetar: Tišina
Temperatura: 14°C
Tačka rose: 14°C
Vlažnost: 100%
Pritisak: 1017 hPa
Pregled: Mist
Oblaci: Mostly Cloudy
Vidljivost: 4 km
Cloud details: Mostly Cloudy 91 m
2023/06/06 03:30 LYKV 060330Z 00000KT 4000 1500SE BR BKN003 14/14 Q1017 TEMPO 0800 FG
LYNI - Niš, Srbija
Ažurirano: 06/06/2023 05:30
Vedro
Vedro
 Pravac vetra I
Vetar: I 24 km/h
Temperatura: 19°C
Tačka rose: 8°C
Vlažnost: 49%
Pritisak: 1017 hPa
Pregled: Vedro
Vidljivost: greater than 10 km
2023/06/06 03:30 LYNI 060330Z 10013KT CAVOK 19/08 Q1017 NOSIG
BKPR - Priština, Srbija
Ažurirano: 06/06/2023 05:30
Mostly Cloudy
Mostly Cloudy
 Pravac vetra varies
Vetar: varies 2 km/h
Temperatura: 15°C
Tačka rose: 15°C
Vlažnost: 100%
Pritisak: 1018 hPa
Oblaci: Mostly Cloudy
Vidljivost: 10 km
Cloud details: Mostly Cloudy 2134 m
2023/06/06 03:30 BKPR 060330Z VRB01KT 9999 BKN070 15/15 Q1018 NOSIG
 
LHPP - Pecs / Pogany, Hungary
Ažurirano: 06/06/2023 05:15
Mostly Cloudy
Mostly Cloudy
 Pravac vetra I
Vetar: I 6 km/h
Temperatura: 18°C
Tačka rose: 17°C
Vlažnost: 94%
Pritisak: 1016 hPa
Oblaci: Mostly Cloudy
Vidljivost: 9 km
Cloud details: Mostly Cloudy 579 m
Mostly Cloudy 2195 m
2023/06/06 03:15 LHPP 060315Z AUTO 09003KT 9000 BKN019 BKN072 18/17 Q1016
LHUD - Szeged, Hungary
Ažurirano: 04/07/2019 01:45
NOT Current
Vedro
Vedro
 Pravac vetra S
Vetar: S 7 km/h
Temperatura: 18°C
Tačka rose: 13°C
Vlažnost: 73%
Pritisak: 1019 hPa
Pregled: Vedro
Vidljivost: greater than 10 km
2019/07/03 23:45 LHUD 032345Z 35004KT CAVOK 18/13 Q1019
LRTR - Timisoara, Romania
Ažurirano: 06/06/2023 05:30
Few Clouds
Few Clouds
 Pravac vetra I
Vetar: I 7 km/h
Temperatura: 17°C
Tačka rose: 16°C
Vlažnost: 94%
Pritisak: 1017 hPa
Oblaci: Few Clouds
Vidljivost: 10 km
Cloud details: Few Clouds 1372 m
2023/06/06 03:30 LRTR 060330Z 10004KT 9999 FEW045CB 17/16 Q1017
 
LRCV - Craiova, Romania
Ažurirano: 06/06/2023 05:30
Vedro
Vedro
 Pravac vetra SI
Vetar: SI 26 km/h
Temperatura: 14°C
Tačka rose: 8°C
Vlažnost: 67%
Pritisak: 1019 hPa
Pregled: Vedro
Vidljivost: greater than 10 km
2023/06/06 03:30 LRCV 060330Z 05014KT CAVOK 14/08 Q1019
LBSF - Sofia, Bulgaria
Ažurirano: 06/06/2023 05:30
Few Clouds
Few Clouds
 Pravac vetra IJI
Vetar: IJI 9 km/h
Temperatura: 12°C
Tačka rose: 7°C
Vlažnost: 72%
Pritisak: 1021 hPa
Oblaci: Few Clouds
Vidljivost: 10 km
Cloud details: Few Clouds 2286 m
2023/06/06 03:30 LBSF 060330Z 12005KT 9999 FEW075 12/07 Q1021 NOSIG
LWSK - Skoplje, Makedonija
Ažurirano: 06/06/2023 05:30
Few Clouds
Few Clouds
 Pravac vetra IJI
Vetar: IJI 4 km/h
Temperatura: 16°C
Tačka rose: 15°C
Vlažnost: 94%
Pritisak: 1018 hPa
Oblaci: Few Clouds
Vidljivost: 10 km
Cloud details: Few Clouds 3048 m
2023/06/06 03:30 LWSK 060330Z 12002KT 9999 FEW100 16/15 Q1018 NOSIG
 
LYPG - Podgorica, Crna Gora
Ažurirano: 06/06/2023 05:30
Mostly Cloudy
Mostly Cloudy
 Pravac vetra calm
Vetar: Tišina
Temperatura: 20°C
Tačka rose: 12°C
Vlažnost: 60%
Pritisak: 1015 hPa
Oblaci: Mostly Cloudy
Vidljivost: 10 km
Cloud details: Mostly Cloudy 2438 m
2023/06/06 03:30 LYPG 060330Z 00000KT 9999 BKN080 20/12 Q1015 NOSIG
LQSA - Sarajevo, Bosna i Hercegovina
Ažurirano: 06/06/2023 05:30
Mostly Cloudy
Mostly Cloudy
 Pravac vetra calm
Vetar: Tišina
Temperatura: 15°C
Tačka rose: 15°C
Vlažnost: 100%
Pritisak: 1017 hPa
Oblaci: Mostly Cloudy
Vidljivost: 10 km
Cloud details: Partly Cloudy 122 m
Mostly Cloudy 1219 m
2023/06/06 03:30 LQSA 060330Z 00000KT 9999 SCT004 BKN040 15/15 Q1017
LDOS - Osijek, Hrvatksa
Ažurirano: 06/06/2023 05:30
Slaba kiša, Delimično oblačno
Slaba kiša, Delimično oblačno
 Pravac vetra I
Vetar: I 6 km/h
Temperatura: 17°C
Tačka rose: 17°C
Vlažnost: 100%
Pritisak: 1016 hPa
Pregled: Light Rain
Oblaci: Partly Cloudy
Vidljivost: 7 km
Cloud details: Partly Cloudy 914 m
2023/06/06 03:30 LDOS 060330Z 08003KT 7000 -RA SCT030 17/17 Q1016